Time;durP1;ratioP1;P1;durP2;ratioP2;P2;SDS_P1;SDS_P2;PMS_P1;PMS_P2;Temp;Humidity;BMP_temperature;BMP_pressure;BME280_temperature;BME280_humidity;BME280_pressure;Samples;Min_cycle;Max_cycle;Signal;HPM_P1;HPM_P2
2023/08/07 12:03:29;;;;;;;4.03;1.60;;;19.40;99.90;;;;;;2830056;23;20230;-46
2023/08/07 12:05:58;;;;;;;9.37;1.80;;;19.30;99.90;;;;;;5095696;28;20689;-44
2023/08/07 12:08:25;;;;;;;9.73;2.20;;;19.10;99.90;;;;;;5078440;28;20203;-44
2023/08/07 12:10:54;;;;;;;6.47;1.60;;;19.10;99.90;;;;;;5095694;28;20264;-44
2023/08/07 12:13:35;;;;;;;6.00;2.53;;;19.20;99.90;;;;;;5094776;28;20183;-45
2023/08/07 12:16:06;;;;;;;5.03;1.63;;;19.40;99.90;;;;;;5095838;28;20660;-45
2023/08/07 12:18:38;;;;;;;5.67;1.77;;;19.60;99.90;;;;;;5095954;28;20657;-44
2023/08/07 12:24:54;;;;;;;4.07;1.47;;;20.00;99.90;;;;;;5096083;28;20301;-45
2023/08/07 12:38:46;;;;;;;3.63;1.53;;;20.30;99.90;;;;;;5035828;28;20316;-47
2023/08/07 12:44:43;;;;;;;4.40;1.67;;;20.50;99.90;;;;;;5034233;28;20176;-45
2023/08/07 12:48:19;;;;;;;4.80;1.60;;;20.50;99.90;;;;;;5001859;28;20319;-46
2023/08/07 12:54:15;;;;;;;6.07;1.90;;;20.40;99.90;;;;;;5096138;28;20189;-46
2023/08/07 12:57:06;;;;;;;5.30;1.73;;;20.30;99.90;;;;;;5077358;28;20219;-47
2023/08/07 12:59:41;;;;;;;6.70;1.77;;;20.30;99.90;;;;;;5096170;28;20210;-43
2023/08/07 13:02:17;;;;;;;4.17;1.90;;;20.20;99.90;;;;;;5073955;28;20198;-46
2023/08/07 13:05:05;;;;;;;7.17;1.93;;;20.20;99.90;;;;;;5095100;28;20182;-43
2023/08/07 13:11:35;;;;;;;3.23;1.90;;;19.70;99.90;;;;;;5096138;28;20162;-47
2023/08/07 13:14:28;;;;;;;4.73;1.80;;;19.60;99.90;;;;;;5095153;28;20549;-45
2023/08/07 13:16:54;;;;;;;8.57;2.27;;;19.50;99.90;;;;;;5096246;28;20203;-46
2023/08/07 13:19:43;;;;;;;4.73;2.07;;;19.50;99.90;;;;;;5078199;28;20214;-46
2023/08/07 13:22:24;;;;;;;4.93;1.87;;;19.60;99.90;;;;;;5076955;28;20187;-47
2023/08/07 13:25:27;;;;;;;4.77;1.63;;;19.80;99.90;;;;;;5078984;28;20278;-46
2023/08/07 13:28:04;;;;;;;5.20;1.47;;;20.10;99.90;;;;;;5094661;28;20213;-45
2023/08/07 13:30:51;;;;;;;5.33;1.70;;;20.40;99.90;;;;;;5094743;28;20190;-49
2023/08/07 13:33:39;;;;;;;3.13;1.40;;;20.60;99.90;;;;;;5097567;28;20186;-52
2023/08/07 13:36:07;;;;;;;3.07;1.53;;;20.80;99.90;;;;;;5077508;28;20221;-50
2023/08/07 13:38:56;;;;;;;4.67;1.60;;;21.00;99.90;;;;;;5096271;28;20191;-51
2023/08/07 13:41:43;;;;;;;3.63;1.40;;;21.00;99.90;;;;;;5058237;28;20269;-45
2023/08/07 13:44:11;;;;;;;3.13;1.50;;;20.80;99.90;;;;;;5061687;28;20658;-46
2023/08/07 13:46:40;;;;;;;4.97;1.73;;;20.60;99.90;;;;;;5077184;28;20210;-45
2023/08/07 13:49:12;;;;;;;3.63;1.83;;;20.30;99.90;;;;;;5095544;28;20618;-45
2023/08/07 13:51:38;;;;;;;7.30;2.30;;;20.20;99.90;;;;;;5095204;28;20229;-46
2023/08/07 13:54:05;;;;;;;4.20;1.67;;;20.00;99.90;;;;;;5077188;28;20186;-50
2023/08/07 13:56:32;;;;;;;3.70;1.50;;;19.90;99.90;;;;;;5076788;28;20233;-46
2023/08/07 13:59:04;;;;;;;4.33;1.77;;;19.70;99.90;;;;;;5094745;28;20593;-45
2023/08/07 14:01:30;;;;;;;4.73;2.00;;;19.60;99.90;;;;;;5094570;28;20241;-53
2023/08/07 14:03:56;;;;;;;4.73;1.63;;;19.50;99.90;;;;;;5094660;28;20203;-50
2023/08/07 14:06:23;;;;;;;5.40;1.90;;;19.50;99.90;;;;;;5077230;28;20217;-52
2023/08/07 14:08:49;;;;;;;4.53;1.50;;;19.70;99.90;;;;;;5096073;28;20210;-45
2023/08/07 14:11:15;;;;;;;4.00;1.63;;;19.90;99.90;;;;;;5095667;28;20187;-51
2023/08/07 14:13:54;;;;;;;4.17;2.00;;;20.10;99.90;;;;;;5060861;28;20552;-50
2023/08/07 14:16:32;;;;;;;3.30;1.80;;;20.40;99.90;;;;;;5087258;28;20214;-51
2023/08/07 14:19:06;;;;;;;4.57;1.53;;;20.50;99.90;;;;;;5079210;28;20171;-50
2023/08/07 14:21:34;;;;;;;2.97;1.63;;;20.70;99.90;;;;;;5096059;28;20187;-50
2023/08/07 14:24:10;;;;;;;3.63;1.50;;;20.90;99.90;;;;;;5095793;28;20205;-45
2023/08/07 14:27:03;;;;;;;3.47;1.60;;;20.90;99.90;;;;;;5094400;28;20222;-49
2023/08/07 14:29:30;;;;;;;3.33;2.00;;;21.10;99.90;;;;;;5094937;28;20191;-46
2023/08/07 14:32:16;;;;;;;4.00;1.70;;;21.20;99.90;;;;;;5076723;28;20191;-46
2023/08/07 14:34:43;;;;;;;2.27;1.50;;;21.20;99.90;;;;;;5077643;28;20187;-51
2023/08/07 14:37:16;;;;;;;4.67;1.40;;;21.20;99.90;;;;;;5077573;28;20210;-52
2023/08/07 14:39:50;;;;;;;3.30;1.40;;;21.30;99.90;;;;;;5076709;28;20194;-45
2023/08/07 14:42:17;;;;;;;2.43;1.30;;;21.50;99.90;;;;;;5076539;28;20642;-50
2023/08/07 14:44:49;;;;;;;2.43;1.40;;;21.60;99.90;;;;;;5076573;28;20222;-45
2023/08/07 14:47:16;;;;;;;3.17;1.70;;;21.60;99.90;;;;;;5076900;28;20230;-45
2023/08/07 14:49:47;;;;;;;1.53;1.20;;;21.70;99.90;;;;;;5076777;28;20194;-51
2023/08/07 14:52:15;;;;;;;5.57;1.30;;;21.80;99.90;;;;;;5095100;28;20176;-46
2023/08/07 14:54:46;;;;;;;2.33;1.30;;;21.90;99.90;;;;;;5077873;28;20277;-45
2023/08/07 14:57:13;;;;;;;1.87;1.10;;;21.80;99.90;;;;;;5094804;28;20217;-51
2023/08/07 14:59:40;;;;;;;1.90;1.10;;;21.60;99.90;;;;;;5094854;28;20191;-52
2023/08/07 15:02:09;;;;;;;2.00;1.07;;;21.50;99.90;;;;;;5077075;28;20197;-52
2023/08/07 15:04:34;;;;;;;1.80;1.10;;;21.50;99.90;;;;;;5076526;28;20715;-45
2023/08/07 15:07:01;;;;;;;2.10;1.10;;;21.50;99.90;;;;;;5078493;28;20210;-51
2023/08/07 15:09:27;;;;;;;1.67;0.90;;;21.60;99.90;;;;;;5063752;28;20182;-52
2023/08/07 15:11:54;;;;;;;1.50;1.10;;;21.60;99.90;;;;;;5080042;28;20205;-51
2023/08/07 15:14:20;;;;;;;2.97;1.30;;;21.60;99.90;;;;;;5081107;28;20244;-46
2023/08/07 15:16:46;;;;;;;2.57;1.30;;;21.50;99.90;;;;;;5098290;28;20195;-47
2023/08/07 15:19:12;;;;;;;1.33;0.80;;;21.30;99.90;;;;;;5098259;28;20183;-52
2023/08/07 15:21:39;;;;;;;1.90;1.30;;;21.00;99.90;;;;;;5098392;28;20171;-47
2023/08/07 15:24:07;;;;;;;2.23;1.33;;;20.80;99.90;;;;;;5098197;28;20176;-50
2023/08/07 15:26:36;;;;;;;3.30;1.10;;;20.70;99.90;;;;;;5079713;28;20290;-46
2023/08/07 15:29:04;;;;;;;1.43;0.90;;;20.60;99.90;;;;;;5097782;28;20234;-45
2023/08/07 15:31:30;;;;;;;1.47;0.87;;;20.60;99.90;;;;;;5097631;28;20190;-45
2023/08/07 15:34:25;;;;;;;1.30;1.00;;;20.70;99.90;;;;;;5079246;28;20549;-50
2023/08/07 15:36:53;;;;;;;1.00;0.83;;;20.70;99.90;;;;;;5072412;28;20203;-44
2023/08/07 15:39:20;;;;;;;2.57;1.10;;;20.60;99.90;;;;;;5097475;28;20182;-45
2023/08/07 15:41:47;;;;;;;1.87;0.90;;;20.60;99.90;;;;;;5097297;28;20181;-44
2023/08/07 15:44:14;;;;;;;2.13;1.03;;;20.60;99.90;;;;;;5097831;28;20647;-54
2023/08/07 15:46:40;;;;;;;2.97;0.90;;;20.80;99.90;;;;;;5079028;28;20293;-49
2023/08/07 15:49:06;;;;;;;1.43;1.30;;;20.90;99.90;;;;;;5097317;28;20211;-47
2023/08/07 15:51:31;;;;;;;0.87;0.87;;;20.90;99.90;;;;;;5079749;28;20183;-45
2023/08/07 15:53:58;;;;;;;1.33;1.03;;;21.00;99.90;;;;;;5096964;28;20266;-51
2023/08/07 15:56:24;;;;;;;1.63;1.00;;;21.10;99.90;;;;;;5079042;28;20217;-46
2023/08/07 15:58:50;;;;;;;1.20;1.10;;;21.10;99.90;;;;;;5097347;28;20191;-46
2023/08/07 16:01:16;;;;;;;1.73;1.00;;;21.00;99.90;;;;;;5096733;28;20191;-45
2023/08/07 16:03:42;;;;;;;1.80;0.80;;;21.00;99.90;;;;;;5097189;28;20264;-45
2023/08/07 16:06:08;;;;;;;1.83;0.93;;;21.00;99.90;;;;;;5078602;28;20689;-50
2023/08/07 16:08:34;;;;;;;2.97;1.43;;;20.80;99.90;;;;;;5096341;28;20580;-46
2023/08/07 16:11:02;;;;;;;1.00;0.90;;;20.70;99.90;;;;;;5078839;28;20183;-53
2023/08/07 16:13:28;;;;;;;1.47;1.10;;;20.60;99.90;;;;;;5078681;28;20276;-45
2023/08/07 16:15:54;;;;;;;2.27;1.00;;;20.60;99.90;;;;;;5062090;28;20210;-49
2023/08/07 16:18:20;;;;;;;1.63;0.97;;;20.40;99.90;;;;;;5077987;28;20187;-44
2023/08/07 16:20:46;;;;;;;1.77;1.17;;;20.30;99.90;;;;;;5096585;28;20179;-46
2023/08/07 16:23:11;;;;;;;2.17;0.93;;;20.20;99.90;;;;;;5078594;28;20199;-51
2023/08/07 16:25:37;;;;;;;2.27;0.80;;;20.00;99.90;;;;;;5096626;28;20182;-49
2023/08/07 16:28:05;;;;;;;3.13;0.90;;;20.00;99.90;;;;;;5097065;28;20215;-46
2023/08/07 16:30:31;;;;;;;2.97;1.67;;;19.90;99.90;;;;;;5078431;28;20201;-43
2023/08/07 16:32:57;;;;;;;1.73;0.90;;;20.00;99.90;;;;;;5096541;28;20224;-43
2023/08/07 16:35:23;;;;;;;1.37;0.90;;;20.10;99.90;;;;;;5078268;28;20179;-45
2023/08/07 16:37:49;;;;;;;2.57;0.90;;;20.30;99.90;;;;;;5096384;28;20179;-45
2023/08/07 16:40:17;;;;;;;0.77;0.77;;;20.40;99.90;;;;;;5079834;28;20206;-51
2023/08/07 16:42:43;;;;;;;2.50;0.80;;;20.40;99.90;;;;;;5078464;28;20175;-50
2023/08/07 16:45:12;;;;;;;0.83;0.80;;;20.30;99.90;;;;;;5096530;28;20515;-46
2023/08/07 16:47:40;;;;;;;1.30;1.03;;;20.20;99.90;;;;;;5077681;28;20611;-42
2023/08/07 16:50:14;;;;;;;1.30;0.83;;;20.00;99.90;;;;;;5095952;28;20183;-45
2023/08/07 16:52:39;;;;;;;1.93;1.00;;;20.00;99.90;;;;;;5077824;28;20182;-49
2023/08/07 16:55:07;;;;;;;1.90;0.90;;;19.90;99.90;;;;;;5096092;28;20685;-44
2023/08/07 16:57:36;;;;;;;1.57;1.20;;;19.80;99.90;;;;;;5095773;28;20221;-44
2023/08/07 17:00:10;;;;;;;2.20;1.00;;;19.80;99.90;;;;;;5077879;28;20619;-44
2023/08/07 17:02:36;;;;;;;1.20;0.77;;;19.80;99.90;;;;;;5062159;28;20183;-45
2023/08/07 17:05:03;;;;;;;2.13;1.13;;;19.80;99.90;;;;;;5061712;28;20218;-47
2023/08/07 17:07:29;;;;;;;1.33;0.80;;;19.80;99.90;;;;;;5095691;28;20207;-49
2023/08/07 17:10:00;;;;;;;1.57;0.90;;;19.90;99.90;;;;;;5077742;28;20602;-45
2023/08/07 17:12:26;;;;;;;1.00;0.90;;;19.90;99.90;;;;;;5096438;28;20170;-49
2023/08/07 17:14:52;;;;;;;2.50;0.90;;;19.90;99.90;;;;;;5096439;28;20521;-50
2023/08/07 17:17:18;;;;;;;2.53;0.83;;;19.80;99.90;;;;;;5077719;28;20214;-51
2023/08/07 17:19:44;;;;;;;2.90;0.70;;;19.70;99.90;;;;;;5077711;28;20198;-50
2023/08/07 17:22:10;;;;;;;1.70;0.90;;;19.70;99.90;;;;;;5095961;28;20187;-51
2023/08/07 17:24:40;;;;;;;3.27;0.87;;;19.60;99.90;;;;;;5095541;28;20533;-46
2023/08/07 17:27:10;;;;;;;1.70;0.80;;;19.70;99.90;;;;;;5095662;28;20210;-44
2023/08/07 17:29:36;;;;;;;1.53;0.77;;;19.70;99.90;;;;;;5095144;28;20194;-45
2023/08/07 17:32:02;;;;;;;1.47;0.73;;;19.60;99.90;;;;;;5095675;28;20225;-51
2023/08/07 17:34:30;;;;;;;1.77;0.80;;;19.60;99.90;;;;;;5077090;28;20187;-45
2023/08/07 17:36:56;;;;;;;4.80;1.03;;;19.50;99.90;;;;;;5094725;28;20203;-49
2023/08/07 17:39:29;;;;;;;2.43;1.00;;;19.40;99.90;;;;;;5077244;28;20187;-44
2023/08/07 17:41:58;;;;;;;1.57;0.83;;;19.30;99.90;;;;;;5095362;28;20229;-45
2023/08/07 17:44:24;;;;;;;2.10;0.90;;;19.20;99.90;;;;;;5077047;28;20178;-51
2023/08/07 17:46:49;;;;;;;1.30;0.80;;;19.20;99.90;;;;;;5077209;28;20263;-51
2023/08/07 17:49:15;;;;;;;4.43;0.80;;;19.10;99.90;;;;;;5095088;28;20214;-46
2023/08/07 17:51:41;;;;;;;4.17;1.03;;;19.00;99.90;;;;;;5095661;28;20236;-44
2023/08/07 17:54:07;;;;;;;2.00;0.90;;;18.90;99.90;;;;;;5077267;28;20278;-48
2023/08/07 17:56:35;;;;;;;1.47;0.97;;;18.80;99.90;;;;;;5095031;28;20642;-48
2023/08/07 17:59:01;;;;;;;1.47;0.93;;;18.80;99.90;;;;;;5077200;28;20191;-50
2023/08/07 18:01:30;;;;;;;1.43;0.70;;;18.70;99.90;;;;;;5094916;28;20210;-48
2023/08/07 18:03:59;;;;;;;2.17;1.17;;;18.60;99.90;;;;;;5095212;28;20199;-49
2023/08/07 18:06:26;;;;;;;2.77;1.27;;;18.60;99.90;;;;;;5095066;28;20574;-48
2023/08/07 18:08:53;;;;;;;3.40;1.60;;;18.50;99.90;;;;;;5076988;28;20692;-45
2023/08/07 18:11:18;;;;;;;0.97;0.80;;;18.40;99.90;;;;;;5076835;28;20680;-48
2023/08/07 18:13:45;;;;;;;2.10;1.00;;;18.40;99.90;;;;;;5095470;28;20257;-44
2023/08/07 18:16:11;;;;;;;1.33;0.80;;;18.30;99.90;;;;;;5094957;28;20199;-44
2023/08/07 18:18:37;;;;;;;0.73;0.70;;;18.30;99.90;;;;;;5076805;28;20662;-45
2023/08/07 18:21:03;;;;;;;1.00;0.70;;;18.20;99.90;;;;;;5094784;28;20252;-49
2023/08/07 18:23:32;;;;;;;3.10;0.93;;;18.20;99.90;;;;;;5094842;28;20179;-46
2023/08/07 18:25:57;;;;;;;4.67;0.90;;;18.10;99.90;;;;;;5076547;28;20207;-45
2023/08/07 18:28:23;;;;;;;0.97;0.67;;;18.10;99.90;;;;;;5094766;28;20260;-48
2023/08/07 18:30:49;;;;;;;1.37;0.77;;;18.00;99.90;;;;;;5094765;28;20206;-44
2023/08/07 18:33:15;;;;;;;2.23;0.83;;;17.90;99.90;;;;;;5093544;28;20210;-44
2023/08/07 18:35:40;;;;;;;3.57;0.87;;;17.90;99.90;;;;;;5093185;28;20273;-43
2023/08/07 18:38:06;;;;;;;3.93;0.80;;;17.80;99.90;;;;;;5093264;28;20183;-44
2023/08/07 18:40:31;;;;;;;1.23;0.70;;;17.70;99.90;;;;;;5093981;28;20681;-45
2023/08/07 18:42:57;;;;;;;1.57;0.80;;;17.60;99.90;;;;;;5078970;28;20179;-45
2023/08/07 18:45:23;;;;;;;2.90;1.00;;;17.60;99.90;;;;;;5097678;28;20240;-44
2023/08/07 18:47:50;;;;;;;5.60;0.90;;;17.50;99.90;;;;;;5097905;28;20211;-44
2023/08/07 18:50:16;;;;;;;2.17;1.10;;;17.40;99.90;;;;;;5078877;28;20205;-44
2023/08/07 18:52:42;;;;;;;2.53;1.00;;;17.40;99.90;;;;;;5097023;28;20183;-42
2023/08/07 18:55:08;;;;;;;1.27;0.90;;;17.30;99.90;;;;;;5097273;28;20226;-42
2023/08/07 18:57:34;;;;;;;1.93;1.10;;;17.30;99.90;;;;;;5096872;28;20218;-43
2023/08/07 18:59:59;;;;;;;2.60;1.20;;;17.20;99.90;;;;;;5096943;28;20183;-44
2023/08/07 19:02:26;;;;;;;1.67;0.80;;;17.10;99.90;;;;;;5096732;28;20568;-44
2023/08/07 19:04:52;;;;;;;2.10;0.90;;;17.00;99.90;;;;;;5097376;28;20183;-46
2023/08/07 19:07:17;;;;;;;1.57;1.07;;;17.00;99.90;;;;;;5078598;28;20564;-44
2023/08/07 19:09:44;;;;;;;3.57;1.43;;;17.00;99.90;;;;;;5097277;28;20605;-42
2023/08/07 19:12:09;;;;;;;3.20;1.20;;;16.90;99.90;;;;;;5097234;28;20530;-43
2023/08/07 19:14:35;;;;;;;2.80;1.00;;;16.80;99.90;;;;;;5097010;28;20194;-43
2023/08/07 19:17:01;;;;;;;1.30;0.93;;;16.80;99.90;;;;;;5096676;28;20611;-46
2023/08/07 19:19:26;;;;;;;2.30;1.00;;;16.70;99.90;;;;;;5095390;28;20183;-43
2023/08/07 19:21:52;;;;;;;2.37;1.13;;;16.70;99.90;;;;;;5096636;28;20259;-43
2023/08/07 19:24:17;;;;;;;2.83;1.00;;;16.60;99.90;;;;;;5096586;28;20187;-41
2023/08/07 19:26:43;;;;;;;1.33;1.00;;;16.50;99.90;;;;;;5096434;28;20215;-41
2023/08/07 19:29:12;;;;;;;2.53;1.17;;;16.50;99.90;;;;;;5096642;28;20236;-44
2023/08/07 19:31:40;;;;;;;1.37;0.90;;;16.40;99.90;;;;;;5096379;28;20241;-42
2023/08/07 19:34:24;;;;;;;2.27;0.90;;;16.30;99.90;;;;;;5096744;28;20572;-43
2023/08/07 19:37:22;;;;;;;1.57;0.90;;;16.30;99.90;;;;;;5093778;28;20574;-44
2023/08/07 19:40:06;;;;;;;1.50;1.03;;;16.30;99.90;;;;;;5077672;28;20194;-43
2023/08/07 19:42:43;;;;;;;2.50;0.93;;;16.20;99.90;;;;;;5090200;28;20187;-43
2023/08/07 19:45:09;;;;;;;1.30;1.00;;;16.10;99.90;;;;;;5095922;28;20190;-43
2023/08/07 19:47:48;;;;;;;2.87;1.00;;;16.10;99.90;;;;;;5096039;28;20214;-43
2023/08/07 19:50:26;;;;;;;1.93;1.10;;;16.00;99.90;;;;;;5096092;28;20543;-45
2023/08/07 19:52:54;;;;;;;3.47;1.30;;;15.90;99.90;;;;;;5092031;28;20186;-42
2023/08/07 19:55:20;;;;;;;2.43;1.00;;;15.80;99.90;;;;;;5077777;28;20175;-43
2023/08/07 19:57:48;;;;;;;3.23;1.30;;;15.80;99.90;;;;;;5095757;28;20191;-44
2023/08/07 20:00:14;;;;;;;3.23;1.30;;;15.70;99.90;;;;;;5095898;28;20201;-43
2023/08/07 20:02:40;;;;;;;4.50;1.27;;;15.60;99.90;;;;;;5095753;28;20195;-43
2023/08/07 20:05:07;;;;;;;3.23;1.10;;;15.60;99.90;;;;;;5096007;28;20250;-43
2023/08/07 20:07:34;;;;;;;3.37;1.17;;;15.50;99.90;;;;;;5095681;28;20321;-42
2023/08/07 20:10:09;;;;;;;2.60;1.60;;;15.50;99.90;;;;;;5095778;28;20195;-42
2023/08/07 20:13:17;;;;;;;3.33;1.27;;;15.40;99.90;;;;;;5095682;28;20171;-43
2023/08/07 20:15:42;;;;;;;1.40;1.10;;;15.40;99.90;;;;;;5094757;28;20686;-43
2023/08/07 20:18:09;;;;;;;2.70;1.40;;;15.40;99.90;;;;;;5094370;28;20270;-44
2023/08/07 20:20:37;;;;;;;3.23;1.43;;;15.30;99.90;;;;;;5095869;28;20236;-45
2023/08/07 20:23:04;;;;;;;3.13;1.60;;;15.30;99.90;;;;;;5095492;28;20194;-43
2023/08/07 20:25:29;;;;;;;2.50;1.47;;;15.30;99.90;;;;;;5095163;28;20202;-43
2023/08/07 20:27:55;;;;;;;5.17;1.53;;;15.20;99.90;;;;;;5095291;28;20203;-43
2023/08/07 20:30:21;;;;;;;1.57;1.20;;;15.20;99.90;;;;;;5095346;28;20179;-43
2023/08/07 20:32:46;;;;;;;2.63;1.30;;;15.20;99.90;;;;;;5077253;28;20183;-42
2023/08/07 20:35:12;;;;;;;1.83;1.20;;;15.10;99.90;;;;;;5095266;28;20179;-41
2023/08/07 20:37:38;;;;;;;2.37;1.37;;;15.00;99.90;;;;;;5095345;28;20229;-43
2023/08/07 20:40:04;;;;;;;1.90;1.23;;;15.00;99.90;;;;;;5095386;28;20232;-42
2023/08/07 20:42:29;;;;;;;2.20;1.20;;;15.00;99.90;;;;;;5094897;28;20214;-48
2023/08/07 20:44:56;;;;;;;2.93;1.20;;;15.00;99.90;;;;;;5095860;28;20186;-47
2023/08/07 20:47:22;;;;;;;2.70;1.30;;;15.00;99.90;;;;;;5095107;28;20202;-48
2023/08/07 20:49:48;;;;;;;2.20;0.90;;;14.90;99.90;;;;;;5077115;28;20233;-48
2023/08/07 20:52:13;;;;;;;3.47;1.00;;;14.90;99.90;;;;;;5095308;28;20215;-49
2023/08/07 20:54:39;;;;;;;1.77;1.10;;;14.80;99.90;;;;;;5094897;28;20179;-48
2023/08/07 20:57:05;;;;;;;1.40;0.90;;;14.80;99.90;;;;;;5094937;28;20674;-48
2023/08/07 20:59:30;;;;;;;2.70;0.90;;;14.80;99.90;;;;;;5060424;28;20270;-49
2023/08/07 21:01:56;;;;;;;1.83;1.60;;;14.80;99.90;;;;;;5101424;28;20187;-48
2023/08/07 21:04:22;;;;;;;2.17;1.17;;;14.80;99.90;;;;;;5094653;28;20278;-47
2023/08/07 21:06:50;;;;;;;1.50;0.93;;;14.80;99.90;;;;;;5094944;28;20199;-48
2023/08/07 21:09:16;;;;;;;1.97;1.10;;;14.70;99.90;;;;;;5076854;28;20210;-47
2023/08/07 21:11:41;;;;;;;3.53;1.47;;;14.70;99.90;;;;;;5095365;28;20162;-48
2023/08/07 21:14:07;;;;;;;1.73;1.07;;;14.60;99.90;;;;;;5078187;28;20214;-47
2023/08/07 21:16:32;;;;;;;2.60;1.10;;;14.60;99.90;;;;;;5077669;28;20203;-49
2023/08/07 21:18:58;;;;;;;2.30;1.20;;;14.60;99.90;;;;;;5076720;28;20205;-44
2023/08/07 21:21:24;;;;;;;3.13;1.50;;;14.50;99.90;;;;;;5077185;28;20190;-42
2023/08/07 21:23:50;;;;;;;1.57;0.90;;;14.50;99.90;;;;;;5095104;28;20198;-45
2023/08/07 21:26:18;;;;;;;1.50;1.10;;;14.50;99.90;;;;;;5095436;28;20198;-47
2023/08/07 21:28:54;;;;;;;3.93;1.33;;;14.40;99.90;;;;;;5095389;28;20563;-42
2023/08/07 21:31:20;;;;;;;1.10;1.00;;;14.40;99.90;;;;;;5077991;28;20619;-47
2023/08/07 21:33:47;;;;;;;1.80;0.93;;;14.30;99.90;;;;;;5095659;28;20183;-43
2023/08/07 21:36:13;;;;;;;1.67;1.03;;;14.30;99.90;;;;;;5077032;28;20202;-47
2023/08/07 21:38:38;;;;;;;1.63;1.10;;;14.30;99.90;;;;;;5095612;28;20217;-47
2023/08/07 21:41:04;;;;;;;2.07;1.20;;;14.20;99.90;;;;;;5095468;28;20215;-44
2023/08/07 21:43:30;;;;;;;1.20;0.90;;;14.10;99.90;;;;;;5094830;28;20191;-43
2023/08/07 21:45:56;;;;;;;1.30;0.97;;;14.10;99.90;;;;;;5094951;28;20207;-50
2023/08/07 21:48:22;;;;;;;1.83;0.90;;;14.10;99.90;;;;;;5094866;28;20210;-41
2023/08/07 21:50:47;;;;;;;1.63;1.00;;;14.10;99.90;;;;;;5094506;28;20229;-47
2023/08/07 21:53:13;;;;;;;1.10;0.90;;;14.10;99.90;;;;;;5094461;28;20259;-47
2023/08/07 21:55:39;;;;;;;1.07;0.80;;;14.10;99.90;;;;;;5094184;28;20182;-48
2023/08/07 21:58:04;;;;;;;1.43;0.93;;;14.10;99.90;;;;;;5093837;28;20198;-48
2023/08/07 22:00:30;;;;;;;2.60;1.10;;;14.00;99.90;;;;;;5094232;28;20194;-48
2023/08/07 22:02:55;;;;;;;1.17;1.07;;;14.00;99.90;;;;;;5093667;28;20571;-48
2023/08/07 22:05:21;;;;;;;2.23;1.00;;;13.90;99.90;;;;;;5075640;28;20642;-47
2023/08/07 22:07:47;;;;;;;1.20;1.10;;;13.90;99.90;;;;;;5093767;28;20263;-49
2023/08/07 22:10:13;;;;;;;2.13;1.10;;;13.90;99.90;;;;;;5093756;28;20547;-47
2023/08/07 22:12:38;;;;;;;4.30;1.20;;;13.80;99.90;;;;;;5075531;28;20183;-48
2023/08/07 22:15:08;;;;;;;3.20;1.03;;;13.70;99.90;;;;;;5093794;28;20500;-48
2023/08/07 22:17:33;;;;;;;3.53;1.40;;;13.70;99.90;;;;;;5097129;28;20202;-49
2023/08/07 22:19:59;;;;;;;1.67;1.10;;;13.60;99.90;;;;;;5097662;28;20186;-48
2023/08/07 22:22:25;;;;;;;2.43;1.33;;;13.60;99.90;;;;;;5097689;28;20183;-48
2023/08/07 22:24:50;;;;;;;1.70;1.23;;;13.50;99.90;;;;;;5098000;28;20198;-48
2023/08/07 22:27:16;;;;;;;1.37;0.90;;;13.40;99.90;;;;;;5097312;28;20205;-48
2023/08/07 22:29:41;;;;;;;2.37;1.20;;;13.40;99.90;;;;;;5097821;28;20183;-47
2023/08/07 22:32:07;;;;;;;1.43;0.97;;;13.30;99.90;;;;;;5097513;28;20183;-48
2023/08/07 22:34:33;;;;;;;1.20;1.10;;;13.30;99.90;;;;;;5079443;28;20260;-47
2023/08/07 22:36:58;;;;;;;2.07;1.20;;;13.20;99.90;;;;;;5097306;28;20234;-47
2023/08/07 22:39:24;;;;;;;2.13;1.33;;;13.20;99.90;;;;;;5079226;28;20196;-47
2023/08/07 22:41:50;;;;;;;2.17;1.30;;;13.20;99.90;;;;;;5079271;28;20190;-48
2023/08/07 22:44:15;;;;;;;2.07;1.33;;;13.10;99.90;;;;;;5097317;28;20178;-48
2023/08/07 22:46:41;;;;;;;4.30;1.17;;;13.10;99.90;;;;;;5097229;28;20222;-49
2023/08/07 22:49:06;;;;;;;1.80;1.20;;;13.10;99.90;;;;;;5097246;28;20662;-47
2023/08/07 22:51:32;;;;;;;1.30;1.10;;;13.00;99.90;;;;;;5097436;28;20183;-47
2023/08/07 22:53:57;;;;;;;1.77;1.10;;;13.00;99.90;;;;;;5097090;28;20190;-47
2023/08/07 22:56:25;;;;;;;1.97;1.27;;;13.00;99.90;;;;;;5078869;28;20205;-47
2023/08/07 22:58:52;;;;;;;4.03;1.63;;;12.90;99.90;;;;;;5078848;28;20315;-47
2023/08/07 23:01:17;;;;;;;3.13;1.60;;;12.90;99.90;;;;;;5078847;28;20195;-47
2023/08/07 23:03:43;;;;;;;6.20;1.30;;;12.80;99.90;;;;;;5096787;28;20210;-47
2023/08/07 23:06:09;;;;;;;2.77;1.40;;;12.80;99.90;;;;;;5096774;28;20558;-47
2023/08/07 23:08:38;;;;;;;4.77;1.37;;;12.80;99.90;;;;;;5078653;28;20811;-43
2023/08/07 23:11:04;;;;;;;1.97;1.50;;;12.80;99.90;;;;;;5097066;28;20649;-41
2023/08/07 23:13:30;;;;;;;1.63;1.17;;;12.80;99.90;;;;;;5078832;28;20187;-41
2023/08/07 23:15:59;;;;;;;1.63;1.30;;;12.80;99.90;;;;;;5096752;28;20573;-43
2023/08/07 23:18:25;;;;;;;2.27;1.60;;;12.70;99.90;;;;;;5078516;28;20290;-42
2023/08/07 23:20:51;;;;;;;1.67;1.30;;;12.70;99.90;;;;;;5078380;28;20618;-42
2023/08/07 23:23:17;;;;;;;1.87;1.17;;;12.70;99.90;;;;;;5078492;28;20191;-42
2023/08/07 23:25:42;;;;;;;3.67;1.23;;;12.70;99.90;;;;;;5097008;28;20212;-42
2023/08/07 23:28:08;;;;;;;2.00;1.40;;;12.60;99.90;;;;;;5095534;28;20573;-43
2023/08/07 23:30:34;;;;;;;3.80;1.40;;;12.60;99.90;;;;;;5096610;28;20304;-41
2023/08/07 23:33:00;;;;;;;3.20;1.30;;;12.60;99.90;;;;;;5096796;28;20657;-39
2023/08/07 23:35:26;;;;;;;2.23;1.40;;;12.50;99.90;;;;;;5096311;28;20591;-42
2023/08/07 23:37:51;;;;;;;2.40;1.43;;;12.60;99.90;;;;;;5096203;28;20243;-42
2023/08/07 23:40:17;;;;;;;3.00;1.20;;;12.50;99.90;;;;;;5096183;28;20232;-41
2023/08/07 23:42:42;;;;;;;1.73;1.33;;;12.50;99.90;;;;;;5096268;28;20195;-42
2023/08/07 23:45:08;;;;;;;2.53;1.53;;;12.50;99.90;;;;;;5096026;28;20239;-42
2023/08/07 23:47:34;;;;;;;2.17;1.67;;;12.40;99.90;;;;;;5096251;28;20227;-41
2023/08/07 23:50:00;;;;;;;4.27;1.53;;;12.40;99.90;;;;;;5096386;28;20187;-43
2023/08/07 23:52:25;;;;;;;2.33;1.50;;;12.40;99.90;;;;;;5096154;28;20266;-42
2023/08/07 23:54:51;;;;;;;5.77;1.70;;;12.40;99.90;;;;;;5096068;28;20239;-42
2023/08/07 23:57:16;;;;;;;4.60;1.90;;;12.30;99.90;;;;;;5096019;28;20682;-41
2023/08/07 23:59:42;;;;;;;2.73;1.77;;;12.30;99.90;;;;;;5096127;28;20182;-40
